IBE043A LEMD-LEPA
Flight info
| Callsign | IBE043A |
|---|---|
| Flight time | 0h 52m |
| Altitude | 30000 |
| Route | LEMD/14R NANDO M871 GODOX |
| Aircraft | A346/H-SDE2E3FGHIJ3J4J5M1RWXY/LB1D1 |
Departure
| Time | 2026-05-07 16:43 |
|---|---|
| Airport | Adolfo Suárez Madrid–Barajas Airport (LEMD) |
Arrival
| Time | 2026-05-07 17:36 |
|---|---|
| Airport | Palma de Mallorca Airport (LEPA) |
| Time | Latitude | Longitude | Altitude | Speed | Heading |
|---|---|---|---|---|---|
| 2026-05-07 16:16 | 40.49874 | -3.56886 | 1976 ft | 0 kts | 100° |
| 2026-05-07 16:31 | 40.49874 | -3.56887 | 1976 ft | 0 kts | 100° |
| 2026-05-07 16:31 | 40.49875 | -3.56889 | 1981 ft | 0 kts | 100° |
| 2026-05-07 16:31 | 40.49877 | -3.56903 | 1981 ft | 3 kts | 99° |
| 2026-05-07 16:31 | 40.49880 | -3.56934 | 1979 ft | 3 kts | 98° |
| 2026-05-07 16:32 | 40.49883 | -3.56965 | 1984 ft | 3 kts | 109° |
| 2026-05-07 16:32 | 40.49896 | -3.56990 | 1984 ft | 3 kts | 159° |
| 2026-05-07 16:32 | 40.49906 | -3.56995 | 1984 ft | 0 kts | 176° |
| 2026-05-07 16:35 | 40.49903 | -3.56995 | 1984 ft | 2 kts | 176° |
| 2026-05-07 16:35 | 40.49862 | -3.56996 | 1983 ft | 8 kts | 185° |
| 2026-05-07 16:35 | 40.49800 | -3.57003 | 1982 ft | 10 kts | 181° |
| 2026-05-07 16:35 | 40.49749 | -3.57038 | 1989 ft | 6 kts | 243° |
| 2026-05-07 16:36 | 40.49736 | -3.57088 | 1990 ft | 9 kts | 244° |
| 2026-05-07 16:36 | 40.49643 | -3.57118 | 1988 ft | 20 kts | 180° |
| 2026-05-07 16:36 | 40.49487 | -3.57116 | 1983 ft | 21 kts | 179° |
| 2026-05-07 16:36 | 40.49333 | -3.57115 | 1983 ft | 22 kts | 179° |
| 2026-05-07 16:37 | 40.49183 | -3.57114 | 1985 ft | 21 kts | 179° |
| 2026-05-07 16:37 | 40.49048 | -3.57113 | 1986 ft | 15 kts | 180° |
| 2026-05-07 16:37 | 40.48939 | -3.57110 | 1986 ft | 16 kts | 180° |
| 2026-05-07 16:37 | 40.48870 | -3.57133 | 1988 ft | 5 kts | 231° |
| 2026-05-07 16:38 | 40.48863 | -3.57190 | 1987 ft | 4 kts | 264° |
| 2026-05-07 16:38 | 40.48860 | -3.57227 | 1987 ft | 5 kts | 266° |
| 2026-05-07 16:38 | 40.48839 | -3.57321 | 1991 ft | 14 kts | 224° |
| 2026-05-07 16:38 | 40.48749 | -3.57340 | 1993 ft | 13 kts | 181° |
| 2026-05-07 16:39 | 40.48672 | -3.57341 | 1997 ft | 8 kts | 186° |
| 2026-05-07 16:39 | 40.48626 | -3.57375 | 1998 ft | 9 kts | 223° |
| 2026-05-07 16:39 | 40.48580 | -3.57445 | 1998 ft | 6 kts | 231° |
| 2026-05-07 16:39 | 40.48579 | -3.57447 | 1998 ft | 0 kts | 231° |
| 2026-05-07 16:40 | 40.48579 | -3.57448 | 1999 ft | 2 kts | 231° |
| 2026-05-07 16:40 | 40.48531 | -3.57521 | 1999 ft | 17 kts | 224° |
| 2026-05-07 16:40 | 40.48438 | -3.57546 | 1999 ft | 13 kts | 155° |
| 2026-05-07 16:41 | 40.48420 | -3.57529 | 2001 ft | 0 kts | 142° |
| 2026-05-07 16:42 | 40.48393 | -3.57501 | 1999 ft | 24 kts | 142° |
| 2026-05-07 16:42 | 40.48082 | -3.57185 | 2007 ft | 88 kts | 142° |
| 2026-05-07 16:43 | 40.47444 | -3.56538 | 1997 ft | 141 kts | 142° |
| 2026-05-07 16:43 | 40.46539 | -3.55638 | 2081 ft | 175 kts | 143° |
| 2026-05-07 16:43 | 40.45701 | -3.54910 | 3365 ft | 118 kts | 144° |
| 2026-05-07 16:43 | 40.44959 | -3.54383 | 3627 ft | 146 kts | 152° |
| 2026-05-07 16:44 | 40.44026 | -3.53527 | 3658 ft | 183 kts | 125° |
| 2026-05-07 16:44 | 40.43326 | -3.52050 | 4175 ft | 197 kts | 121° |
| 2026-05-07 16:44 | 40.42628 | -3.50454 | 4751 ft | 206 kts | 115° |
| 2026-05-07 16:44 | 40.42024 | -3.48651 | 5227 ft | 229 kts | 115° |
| 2026-05-07 16:45 | 40.41359 | -3.46611 | 5706 ft | 253 kts | 115° |
| 2026-05-07 16:45 | 40.40666 | -3.44466 | 6501 ft | 264 kts | 114° |
| 2026-05-07 16:45 | 40.39942 | -3.42218 | 7394 ft | 271 kts | 115° |
| 2026-05-07 16:45 | 40.39203 | -3.39919 | 8336 ft | 275 kts | 115° |
| 2026-05-07 16:46 | 40.38459 | -3.37608 | 9376 ft | 276 kts | 115° |
| 2026-05-07 16:46 | 40.37718 | -3.35306 | 10285 ft | 279 kts | 115° |
| 2026-05-07 16:46 | 40.36957 | -3.32950 | 11153 ft | 282 kts | 115° |
| 2026-05-07 16:46 | 40.36184 | -3.30560 | 11925 ft | 290 kts | 115° |
| 2026-05-07 16:47 | 40.35381 | -3.28080 | 12576 ft | 300 kts | 115° |
| 2026-05-07 16:47 | 40.34545 | -3.25500 | 13090 ft | 316 kts | 115° |
| 2026-05-07 16:47 | 40.33658 | -3.22765 | 13474 ft | 334 kts | 115° |
| 2026-05-07 16:47 | 40.32726 | -3.19895 | 13907 ft | 349 kts | 115° |
| 2026-05-07 16:48 | 40.31764 | -3.16926 | 14492 ft | 358 kts | 115° |
| 2026-05-07 16:48 | 40.30780 | -3.13895 | 15152 ft | 364 kts | 115° |
| 2026-05-07 16:48 | 40.29782 | -3.10824 | 15837 ft | 369 kts | 115° |
| 2026-05-07 16:48 | 40.28780 | -3.07746 | 16541 ft | 374 kts | 115° |
| 2026-05-07 16:49 | 40.27750 | -3.04584 | 17271 ft | 378 kts | 115° |
| 2026-05-07 16:49 | 40.26710 | -3.01398 | 18026 ft | 382 kts | 115° |
| 2026-05-07 16:49 | 40.25656 | -2.98171 | 18697 ft | 386 kts | 115° |
| 2026-05-07 16:49 | 40.24608 | -2.94966 | 19323 ft | 389 kts | 115° |
| 2026-05-07 16:50 | 40.23533 | -2.91684 | 19959 ft | 393 kts | 115° |
| 2026-05-07 16:50 | 40.22451 | -2.88382 | 20601 ft | 396 kts | 115° |
| 2026-05-07 16:50 | 40.21360 | -2.85060 | 21232 ft | 400 kts | 115° |
| 2026-05-07 16:50 | 40.20254 | -2.81692 | 21841 ft | 404 kts | 115° |
| 2026-05-07 16:51 | 40.19150 | -2.78340 | 22420 ft | 407 kts | 115° |
| 2026-05-07 16:51 | 40.18025 | -2.74925 | 23011 ft | 411 kts | 115° |
| 2026-05-07 16:51 | 40.16886 | -2.71472 | 23579 ft | 415 kts | 115° |
| 2026-05-07 16:51 | 40.15735 | -2.67987 | 23880 ft | 419 kts | 115° |
| 2026-05-07 16:52 | 40.14578 | -2.64484 | 23950 ft | 419 kts | 116° |
| 2026-05-07 16:52 | 40.13422 | -2.60992 | 23954 ft | 419 kts | 116° |
| 2026-05-07 16:52 | 40.12260 | -2.57488 | 23956 ft | 419 kts | 116° |
| 2026-05-07 16:52 | 40.11098 | -2.53990 | 23956 ft | 419 kts | 116° |
| 2026-05-07 16:53 | 40.09952 | -2.50543 | 23956 ft | 419 kts | 116° |
| 2026-05-07 16:53 | 40.08790 | -2.47051 | 23958 ft | 419 kts | 116° |
| 2026-05-07 16:53 | 40.07628 | -2.43562 | 23960 ft | 419 kts | 116° |
| 2026-05-07 16:53 | 40.06459 | -2.40059 | 23960 ft | 419 kts | 116° |
| 2026-05-07 16:54 | 40.05292 | -2.36565 | 23961 ft | 419 kts | 116° |
| 2026-05-07 16:54 | 40.04125 | -2.33074 | 23960 ft | 419 kts | 116° |
| 2026-05-07 16:54 | 40.02975 | -2.29638 | 23960 ft | 419 kts | 116° |
| 2026-05-07 16:54 | 40.01807 | -2.26153 | 24148 ft | 419 kts | 117° |
| 2026-05-07 16:55 | 40.00637 | -2.22669 | 24651 ft | 420 kts | 117° |
| 2026-05-07 16:55 | 39.99459 | -2.19173 | 25174 ft | 421 kts | 118° |
| 2026-05-07 16:55 | 39.98187 | -2.15730 | 25673 ft | 421 kts | 121° |
| 2026-05-07 16:55 | 39.96817 | -2.12341 | 26137 ft | 423 kts | 122° |
| 2026-05-07 16:56 | 39.95389 | -2.08967 | 26581 ft | 425 kts | 123° |
| 2026-05-07 16:56 | 39.93932 | -2.05587 | 27028 ft | 428 kts | 123° |
| 2026-05-07 16:56 | 39.91016 | -1.98828 | 27892 ft | 433 kts | 123° |
| 2026-05-07 16:57 | 39.89539 | -1.95381 | 28319 ft | 436 kts | 123° |
| 2026-05-07 16:57 | 39.88063 | -1.91923 | 28729 ft | 438 kts | 123° |
| 2026-05-07 16:57 | 39.86577 | -1.88436 | 29060 ft | 443 kts | 123° |
| 2026-05-07 16:57 | 39.85072 | -1.84904 | 29372 ft | 447 kts | 123° |
| 2026-05-07 16:58 | 39.83560 | -1.81358 | 29778 ft | 449 kts | 123° |
| 2026-05-07 16:58 | 39.82041 | -1.77798 | 29976 ft | 451 kts | 123° |
| 2026-05-07 16:58 | 39.79037 | -1.70761 | 29972 ft | 442 kts | 123° |
| 2026-05-07 16:59 | 39.76029 | -1.63745 | 29981 ft | 445 kts | 123° |
| 2026-05-07 16:59 | 39.73007 | -1.56718 | 30044 ft | 447 kts | 123° |
| 2026-05-07 17:00 | 39.71500 | -1.53218 | 30171 ft | 453 kts | 123° |
| 2026-05-07 17:00 | 39.69946 | -1.49613 | 30323 ft | 459 kts | 123° |
| 2026-05-07 17:00 | 39.68375 | -1.45978 | 30562 ft | 464 kts | 123° |
| 2026-05-07 17:00 | 39.66790 | -1.42316 | 30787 ft | 468 kts | 123° |
| 2026-05-07 17:01 | 39.65183 | -1.38606 | 31017 ft | 472 kts | 123° |
| 2026-05-07 17:01 | 39.63566 | -1.34874 | 31232 ft | 476 kts | 123° |
| 2026-05-07 17:01 | 39.61937 | -1.31116 | 31459 ft | 480 kts | 123° |
| 2026-05-07 17:01 | 39.60292 | -1.27329 | 31681 ft | 483 kts | 123° |
| 2026-05-07 17:02 | 39.58653 | -1.23559 | 31877 ft | 487 kts | 123° |
| 2026-05-07 17:02 | 39.57004 | -1.19764 | 31909 ft | 478 kts | 123° |
| 2026-05-07 17:02 | 39.53768 | -1.12321 | 31928 ft | 472 kts | 123° |
| 2026-05-07 17:03 | 39.50542 | -1.04945 | 31937 ft | 469 kts | 123° |
| 2026-05-07 17:03 | 39.47318 | -0.97609 | 31948 ft | 468 kts | 123° |
| 2026-05-07 17:04 | 39.44092 | -0.90278 | 31949 ft | 469 kts | 123° |
| 2026-05-07 17:04 | 39.40892 | -0.82976 | 31947 ft | 469 kts | 123° |
| 2026-05-07 17:05 | 39.37668 | -0.75641 | 31928 ft | 469 kts | 124° |
| 2026-05-07 17:05 | 39.34438 | -0.68357 | 31929 ft | 464 kts | 124° |
| 2026-05-07 17:06 | 39.31227 | -0.61135 | 31945 ft | 468 kts | 124° |
| 2026-05-07 17:06 | 39.28862 | -0.53188 | 31937 ft | 478 kts | 103° |
| 2026-05-07 17:07 | 39.28592 | -0.48957 | 31941 ft | 481 kts | 91° |
| 2026-05-07 17:07 | 39.28686 | -0.44624 | 31935 ft | 483 kts | 89° |
| 2026-05-07 17:07 | 39.29147 | -0.35965 | 31935 ft | 484 kts | 87° |
| 2026-05-07 17:08 | 39.29674 | -0.27289 | 31937 ft | 484 kts | 87° |
| 2026-05-07 17:08 | 39.30155 | -0.18626 | 31938 ft | 484 kts | 88° |
| 2026-05-07 17:09 | 39.30602 | -0.09962 | 31701 ft | 495 kts | 88° |
| 2026-05-07 17:09 | 39.30825 | -0.05481 | 31557 ft | 502 kts | 88° |
| 2026-05-07 17:09 | 39.31050 | -0.00970 | 31315 ft | 500 kts | 88° |
| 2026-05-07 17:10 | 39.31198 | 0.01998 | 31124 ft | 497 kts | 88° |
| 2026-05-07 17:10 | 39.31419 | 0.06431 | 30878 ft | 491 kts | 88° |
| 2026-05-07 17:10 | 39.31635 | 0.10804 | 30632 ft | 486 kts | 88° |
| 2026-05-07 17:10 | 39.31848 | 0.15150 | 30391 ft | 483 kts | 89° |
| 2026-05-07 17:11 | 39.32057 | 0.19466 | 30153 ft | 479 kts | 89° |
| 2026-05-07 17:11 | 39.32262 | 0.23743 | 29891 ft | 475 kts | 89° |
| 2026-05-07 17:11 | 39.32464 | 0.27997 | 29597 ft | 472 kts | 89° |
| 2026-05-07 17:11 | 39.32660 | 0.32161 | 29320 ft | 470 kts | 89° |
| 2026-05-07 17:12 | 39.32856 | 0.36366 | 29041 ft | 467 kts | 89° |
| 2026-05-07 17:12 | 39.33051 | 0.40551 | 28741 ft | 465 kts | 90° |
| 2026-05-07 17:12 | 39.33243 | 0.44691 | 28464 ft | 461 kts | 90° |
| 2026-05-07 17:12 | 39.33432 | 0.48823 | 27975 ft | 459 kts | 90° |
| 2026-05-07 17:13 | 39.33616 | 0.52921 | 27446 ft | 455 kts | 90° |
| 2026-05-07 17:13 | 39.33799 | 0.56983 | 26926 ft | 450 kts | 90° |
| 2026-05-07 17:13 | 39.33978 | 0.61006 | 26414 ft | 446 kts | 90° |
| 2026-05-07 17:13 | 39.34154 | 0.64986 | 25909 ft | 441 kts | 90° |
| 2026-05-07 17:14 | 39.34328 | 0.68934 | 25420 ft | 437 kts | 90° |
| 2026-05-07 17:14 | 39.34496 | 0.72785 | 24943 ft | 433 kts | 90° |
| 2026-05-07 17:14 | 39.34664 | 0.76664 | 24424 ft | 429 kts | 90° |
| 2026-05-07 17:14 | 39.34829 | 0.80489 | 23963 ft | 424 kts | 90° |
| 2026-05-07 17:15 | 39.34993 | 0.84290 | 23510 ft | 420 kts | 91° |
| 2026-05-07 17:15 | 39.35152 | 0.88044 | 22967 ft | 416 kts | 91° |
| 2026-05-07 17:15 | 39.35307 | 0.91765 | 22381 ft | 413 kts | 91° |
| 2026-05-07 17:15 | 39.35458 | 0.95423 | 21729 ft | 413 kts | 91° |
| 2026-05-07 17:16 | 39.35610 | 0.99135 | 21044 ft | 414 kts | 90° |
| 2026-05-07 17:16 | 39.35762 | 1.02853 | 20392 ft | 414 kts | 90° |
| 2026-05-07 17:16 | 39.35913 | 1.06572 | 19748 ft | 414 kts | 90° |
| 2026-05-07 17:16 | 39.36064 | 1.10302 | 19107 ft | 414 kts | 89° |
| 2026-05-07 17:17 | 39.36213 | 1.14019 | 18490 ft | 414 kts | 89° |
| 2026-05-07 17:17 | 39.36361 | 1.17731 | 17823 ft | 413 kts | 88° |
| 2026-05-07 17:17 | 39.36507 | 1.21433 | 17133 ft | 411 kts | 88° |
| 2026-05-07 17:17 | 39.36652 | 1.25111 | 16452 ft | 409 kts | 88° |
| 2026-05-07 17:18 | 39.36794 | 1.28767 | 15783 ft | 406 kts | 88° |
| 2026-05-07 17:18 | 39.36933 | 1.32351 | 15146 ft | 403 kts | 88° |
| 2026-05-07 17:18 | 39.37071 | 1.35958 | 14511 ft | 400 kts | 88° |
| 2026-05-07 17:18 | 39.37210 | 1.39543 | 13898 ft | 396 kts | 88° |
| 2026-05-07 17:19 | 39.37522 | 1.43063 | 13307 ft | 392 kts | 82° |
| 2026-05-07 17:19 | 39.37967 | 1.46525 | 12638 ft | 388 kts | 81° |
| 2026-05-07 17:19 | 39.38429 | 1.49957 | 11982 ft | 385 kts | 80° |
| 2026-05-07 17:19 | 39.38877 | 1.53321 | 11674 ft | 372 kts | 81° |
| 2026-05-07 17:20 | 39.39298 | 1.56567 | 11429 ft | 359 kts | 80° |
| 2026-05-07 17:20 | 39.39708 | 1.59663 | 11198 ft | 348 kts | 80° |
| 2026-05-07 17:20 | 39.40111 | 1.62715 | 11002 ft | 339 kts | 80° |
| 2026-05-07 17:20 | 39.40497 | 1.65650 | 10836 ft | 322 kts | 80° |
| 2026-05-07 17:21 | 39.40854 | 1.68390 | 10581 ft | 296 kts | 80° |
| 2026-05-07 17:21 | 39.41183 | 1.70916 | 10324 ft | 272 kts | 79° |
| 2026-05-07 17:21 | 39.41486 | 1.73256 | 10078 ft | 255 kts | 79° |
| 2026-05-07 17:21 | 39.41774 | 1.75475 | 9841 ft | 248 kts | 79° |
| 2026-05-07 17:22 | 39.42059 | 1.77669 | 9578 ft | 247 kts | 79° |
| 2026-05-07 17:22 | 39.42342 | 1.79851 | 9409 ft | 243 kts | 79° |
| 2026-05-07 17:22 | 39.42618 | 1.81991 | 9163 ft | 246 kts | 79° |
| 2026-05-07 17:22 | 39.42905 | 1.84210 | 8679 ft | 254 kts | 79° |
| 2026-05-07 17:23 | 39.43201 | 1.86498 | 8172 ft | 262 kts | 79° |
| 2026-05-07 17:23 | 39.43504 | 1.88858 | 7672 ft | 268 kts | 79° |
| 2026-05-07 17:23 | 39.43770 | 1.91269 | 7175 ft | 273 kts | 84° |
| 2026-05-07 17:23 | 39.43926 | 1.93725 | 6705 ft | 270 kts | 85° |
| 2026-05-07 17:24 | 39.44064 | 1.96084 | 6323 ft | 254 kts | 85° |
| 2026-05-07 17:24 | 39.44186 | 1.98292 | 5987 ft | 240 kts | 85° |
| 2026-05-07 17:24 | 39.44296 | 2.00354 | 5914 ft | 226 kts | 85° |
| 2026-05-07 17:24 | 39.44400 | 2.02353 | 5921 ft | 221 kts | 85° |
| 2026-05-07 17:25 | 39.44503 | 2.04341 | 5966 ft | 221 kts | 85° |
| 2026-05-07 17:25 | 39.44600 | 2.06331 | 5970 ft | 221 kts | 85° |
| 2026-05-07 17:25 | 39.44696 | 2.08315 | 5977 ft | 221 kts | 85° |
| 2026-05-07 17:25 | 39.44792 | 2.10296 | 5972 ft | 221 kts | 85° |
| 2026-05-07 17:26 | 39.44889 | 2.12284 | 5976 ft | 221 kts | 85° |
| 2026-05-07 17:26 | 39.44987 | 2.14311 | 5991 ft | 229 kts | 85° |
| 2026-05-07 17:26 | 39.45088 | 2.16373 | 5974 ft | 230 kts | 85° |
| 2026-05-07 17:26 | 39.45189 | 2.18424 | 5976 ft | 231 kts | 86° |
| 2026-05-07 17:27 | 39.45287 | 2.20497 | 5972 ft | 231 kts | 85° |
| 2026-05-07 17:27 | 39.45387 | 2.22578 | 5978 ft | 232 kts | 85° |
| 2026-05-07 17:27 | 39.45486 | 2.24660 | 5983 ft | 232 kts | 85° |
| 2026-05-07 17:27 | 39.45585 | 2.26749 | 5978 ft | 232 kts | 85° |
| 2026-05-07 17:28 | 39.45683 | 2.28809 | 5971 ft | 231 kts | 86° |
| 2026-05-07 17:28 | 39.45780 | 2.30850 | 5896 ft | 223 kts | 86° |
| 2026-05-07 17:28 | 39.45872 | 2.32816 | 5805 ft | 215 kts | 86° |
| 2026-05-07 17:28 | 39.45963 | 2.34721 | 5692 ft | 208 kts | 86° |
| 2026-05-07 17:29 | 39.46048 | 2.36553 | 5513 ft | 198 kts | 86° |
| 2026-05-07 17:29 | 39.46128 | 2.38287 | 5265 ft | 190 kts | 86° |
| 2026-05-07 17:29 | 39.46205 | 2.39969 | 4978 ft | 185 kts | 85° |
| 2026-05-07 17:29 | 39.46281 | 2.41619 | 4678 ft | 182 kts | 85° |
| 2026-05-07 17:30 | 39.46357 | 2.43249 | 4335 ft | 182 kts | 85° |
| 2026-05-07 17:30 | 39.46431 | 2.44863 | 3957 ft | 180 kts | 85° |
| 2026-05-07 17:30 | 39.46506 | 2.46464 | 3564 ft | 177 kts | 85° |
| 2026-05-07 17:30 | 39.46575 | 2.48006 | 3307 ft | 168 kts | 86° |
| 2026-05-07 17:31 | 39.46640 | 2.49564 | 2737 ft | 179 kts | 89° |
| 2026-05-07 17:31 | 39.46708 | 2.51168 | 2357 ft | 174 kts | 86° |
| 2026-05-07 17:31 | 39.46778 | 2.52731 | 2298 ft | 176 kts | 85° |
| 2026-05-07 17:31 | 39.46987 | 2.54319 | 2299 ft | 181 kts | 71° |
| 2026-05-07 17:32 | 39.47498 | 2.55757 | 2142 ft | 174 kts | 60° |
| 2026-05-07 17:32 | 39.48115 | 2.57086 | 2005 ft | 174 kts | 59° |
| 2026-05-07 17:32 | 39.48756 | 2.58436 | 1991 ft | 173 kts | 59° |
| 2026-05-07 17:32 | 39.49349 | 2.59685 | 1973 ft | 152 kts | 60° |
| 2026-05-07 17:33 | 39.49864 | 2.60768 | 1887 ft | 133 kts | 60° |
| 2026-05-07 17:33 | 39.50318 | 2.61737 | 1725 ft | 121 kts | 60° |
| 2026-05-07 17:33 | 39.50751 | 2.62661 | 1557 ft | 120 kts | 60° |
| 2026-05-07 17:33 | 39.51186 | 2.63584 | 1399 ft | 120 kts | 59° |
| 2026-05-07 17:34 | 39.51622 | 2.64508 | 1240 ft | 120 kts | 58° |
| 2026-05-07 17:34 | 39.52054 | 2.65421 | 1075 ft | 118 kts | 60° |
| 2026-05-07 17:34 | 39.52479 | 2.66322 | 915 ft | 116 kts | 58° |
| 2026-05-07 17:34 | 39.52904 | 2.67223 | 752 ft | 119 kts | 57° |
| 2026-05-07 17:35 | 39.53339 | 2.68143 | 595 ft | 120 kts | 60° |
| 2026-05-07 17:35 | 39.53775 | 2.69066 | 428 ft | 120 kts | 58° |
| 2026-05-07 17:35 | 39.54193 | 2.69972 | 245 ft | 115 kts | 59° |
| 2026-05-07 17:35 | 39.54599 | 2.70832 | 102 ft | 114 kts | 53° |
| 2026-05-07 17:36 | 39.55013 | 2.71693 | 41 ft | 109 kts | 61° |
| 2026-05-07 17:36 | 39.55298 | 2.72348 | 34 ft | 37 kts | 56° |
| 2026-05-07 17:36 | 39.55379 | 2.72492 | 34 ft | 16 kts | 52° |
| 2026-05-07 17:36 | 39.55441 | 2.72602 | 34 ft | 14 kts | 58° |
| 2026-05-07 17:37 | 39.55490 | 2.72701 | 34 ft | 14 kts | 59° |
| 2026-05-07 17:37 | 39.55488 | 2.72816 | 34 ft | 12 kts | 118° |
| 2026-05-07 17:37 | 39.55447 | 2.72899 | 34 ft | 6 kts | 124° |
| 2026-05-07 17:37 | 39.55446 | 2.72901 | 34 ft | 0 kts | 124° |
| 2026-05-07 17:39 | 39.55406 | 2.72956 | 34 ft | 12 kts | 146° |
| 2026-05-07 17:39 | 39.55335 | 2.73004 | 34 ft | 11 kts | 149° |
| 2026-05-07 17:39 | 39.55271 | 2.73033 | 34 ft | 9 kts | 188° |
| 2026-05-07 17:40 | 39.55223 | 2.72966 | 34 ft | 9 kts | 238° |
| 2026-05-07 17:40 | 39.55194 | 2.72951 | 34 ft | 3 kts | 170° |
| 2026-05-07 17:40 | 39.55140 | 2.72968 | 33 ft | 7 kts | 163° |
| 2026-05-07 17:40 | 39.55136 | 2.72969 | 34 ft | 0 kts | 164° |